Time;durP1;ratioP1;P1;durP2;ratioP2;P2;SDS_P1;SDS_P2;PMS_P1;PMS_P2;Temp;Humidity;BMP_temperature;BMP_pressure;BME280_temperature;BME280_humidity;BME280_pressure;Samples;Min_cycle;Max_cycle;Signal;HPM_P1;HPM_P2
2023/07/02 00:01:16;;;;;;;;;;;17.30;99.90;;;;;;7596917;19;19978;-86
2023/07/02 00:03:49;;;;;;;;;;;17.40;99.90;;;;;;7604154;19;19929;-84
2023/07/02 00:06:21;;;;;;;;;;;17.40;99.90;;;;;;7583968;19;19923;-84
2023/07/02 00:08:54;;;;;;;;;;;17.40;99.90;;;;;;7603893;19;19925;-84
2023/07/02 00:11:26;;;;;;;;;;;17.50;99.90;;;;;;7610851;19;20432;-84
2023/07/02 00:13:59;;;;;;;;;;;17.40;99.90;;;;;;7592092;19;20245;-81
2023/07/02 00:16:31;;;;;;;;;;;17.40;99.90;;;;;;7607627;19;20010;-81
2023/07/02 00:19:04;;;;;;;;;;;17.40;99.90;;;;;;7602860;19;19922;-83
2023/07/02 00:21:37;;;;;;;;;;;17.50;99.90;;;;;;7612435;19;19919;-83
2023/07/02 00:24:09;;;;;;;;;;;17.50;99.90;;;;;;7607629;19;20420;-84
2023/07/02 00:26:42;;;;;;;;;;;17.50;99.90;;;;;;7602800;19;19915;-83
2023/07/02 00:29:16;;;;;;;;;;;17.40;99.90;;;;;;7599087;19;19961;-83
2023/07/02 00:31:49;;;;;;;;;;;17.40;99.90;;;;;;7603393;19;19911;-83
2023/07/02 00:34:22;;;;;;;;;;;17.40;99.90;;;;;;7591216;19;19923;-85
2023/07/02 00:36:54;;;;;;;;;;;17.40;99.90;;;;;;7614896;19;19925;-81
2023/07/02 00:39:26;;;;;;;;;;;17.50;99.90;;;;;;7627380;19;20779;-82
2023/07/02 00:42:04;;;;;;;;;;;17.40;99.90;;;;;;7619413;19;21108;-82
2023/07/02 00:44:40;;;;;;;;;;;17.40;99.90;;;;;;7607201;19;20458;-84
2023/07/02 00:47:13;;;;;;;;;;;17.40;99.90;;;;;;7596179;19;19970;-85
2023/07/02 00:49:45;;;;;;;;;;;17.40;99.90;;;;;;7602039;19;19921;-83
2023/07/02 00:52:20;;;;;;;;;;;17.40;99.90;;;;;;7597609;19;19922;-84
2023/07/02 00:54:52;;;;;;;;;;;17.40;99.90;;;;;;7608085;19;19917;-83
2023/07/02 00:57:29;;;;;;;;;;;17.20;99.90;;;;;;7620078;19;19959;-83
2023/07/02 01:00:02;;;;;;;;;;;17.20;99.90;;;;;;7625338;19;19917;-83
2023/07/02 01:02:36;;;;;;;;;;;17.20;99.90;;;;;;7627164;19;19939;-84
2023/07/02 01:05:09;;;;;;;;;;;17.10;99.90;;;;;;7616863;19;19922;-84
2023/07/02 01:07:41;;;;;;;;;;;17.10;99.90;;;;;;7611581;19;19915;-84
2023/07/02 01:10:13;;;;;;;;;;;17.10;99.90;;;;;;7603917;19;19910;-82
2023/07/02 01:12:46;;;;;;;;;;;16.90;99.90;;;;;;7608128;19;20282;-82
2023/07/02 01:15:19;;;;;;;;;;;16.80;99.90;;;;;;7593527;19;19911;-84
2023/07/02 01:17:52;;;;;;;;;;;16.80;99.90;;;;;;7609352;19;19936;-86
2023/07/02 01:20:26;;;;;;;;;;;16.80;99.90;;;;;;7586757;19;19977;-83
2023/07/02 01:23:02;;;;;;;;;;;16.80;99.90;;;;;;7603911;19;20527;-85
2023/07/02 01:25:36;;;;;;;;;;;16.70;99.90;;;;;;7596638;19;19914;-85
2023/07/02 01:28:13;;;;;;;;;;;16.70;99.90;;;;;;7596885;19;19947;-85
2023/07/02 01:30:45;;;;;;;;;;;16.80;99.90;;;;;;7598136;19;20002;-86
2023/07/02 01:33:18;;;;;;;;;;;16.80;99.90;;;;;;7587067;19;19931;-83
2023/07/02 01:35:50;;;;;;;;;;;16.70;99.90;;;;;;7591159;19;19997;-84
2023/07/02 01:38:23;;;;;;;;;;;16.80;99.90;;;;;;7587743;19;20514;-85
2023/07/02 01:40:55;;;;;;;;;;;16.80;99.90;;;;;;7597483;19;19951;-84
2023/07/02 01:43:27;;;;;;;;;;;16.70;99.90;;;;;;7596307;19;19911;-81
2023/07/02 01:46:01;;;;;;;;;;;16.80;99.90;;;;;;7595933;19;19997;-83
2023/07/02 01:48:34;;;;;;;;;;;16.70;99.90;;;;;;7591111;19;19960;-84
2023/07/02 01:51:06;;;;;;;;;;;16.60;99.90;;;;;;7590706;19;19924;-83
2023/07/02 01:53:38;;;;;;;;;;;16.70;99.90;;;;;;7596077;19;19922;-84
2023/07/02 01:56:10;;;;;;;;;;;16.60;99.90;;;;;;7588051;19;19923;-83
2023/07/02 01:58:43;;;;;;;;;;;16.60;99.90;;;;;;7598571;19;19919;-84
2023/07/02 02:01:15;;;;;;;;;;;16.50;99.90;;;;;;7592922;19;19910;-85
2023/07/02 02:03:48;;;;;;;;;;;16.60;99.90;;;;;;7597854;19;20016;-86
2023/07/02 02:06:21;;;;;;;;;;;16.60;99.90;;;;;;7598938;19;20323;-84
2023/07/02 02:08:54;;;;;;;;;;;16.70;99.90;;;;;;7601194;19;19915;-83
2023/07/02 02:11:26;;;;;;;;;;;16.60;99.90;;;;;;7594866;19;19939;-82
2023/07/02 02:14:01;;;;;;;;;;;16.60;99.90;;;;;;7599349;19;19910;-80
2023/07/02 02:16:36;;;;;;;;;;;16.60;99.90;;;;;;7606629;19;20419;-81
2023/07/02 02:19:08;;;;;;;;;;;16.60;99.90;;;;;;7602694;19;19910;-84
2023/07/02 02:21:41;;;;;;;;;;;16.50;99.90;;;;;;7601684;19;19919;-84
2023/07/02 02:24:14;;;;;;;;;;;16.50;99.90;;;;;;7598964;19;19955;-86
2023/07/02 02:26:46;;;;;;;;;;;16.50;99.90;;;;;;7593474;19;19914;-82
2023/07/02 02:29:19;;;;;;;;;;;16.50;99.90;;;;;;7592464;19;19919;-84
2023/07/02 02:31:51;;;;;;;;;;;16.50;99.90;;;;;;7593605;19;20647;-84
2023/07/02 02:34:25;;;;;;;;;;;16.50;99.90;;;;;;7596655;19;20395;-85
2023/07/02 02:36:57;;;;;;;;;;;16.50;99.90;;;;;;7594778;19;20002;-83
2023/07/02 02:39:30;;;;;;;;;;;16.60;99.90;;;;;;7595118;19;21194;-82
2023/07/02 02:42:03;;;;;;;;;;;16.60;99.90;;;;;;7599720;19;19934;-81
2023/07/02 02:44:36;;;;;;;;;;;16.60;99.90;;;;;;7591721;19;19960;-84
2023/07/02 02:47:08;;;;;;;;;;;16.60;99.90;;;;;;7572101;19;19951;-80
2023/07/02 02:49:41;;;;;;;;;;;16.60;99.90;;;;;;7593210;19;19933;-83
2023/07/02 02:52:14;;;;;;;;;;;16.70;99.90;;;;;;7591747;19;19926;-82
2023/07/02 02:54:47;;;;;;;;;;;16.50;99.90;;;;;;7597165;19;20001;-82
2023/07/02 02:57:19;;;;;;;;;;;16.70;99.90;;;;;;7608891;19;19915;-81
2023/07/02 02:59:52;;;;;;;;;;;16.80;99.90;;;;;;7609058;19;19922;-80
2023/07/02 03:02:24;;;;;;;;;;;16.80;99.90;;;;;;7600525;19;19915;-85
2023/07/02 03:05:02;;;;;;;;;;;16.90;99.90;;;;;;7625030;19;19927;-84
2023/07/02 03:07:36;;;;;;;;;;;16.70;99.90;;;;;;7632659;19;19935;-85
2023/07/02 03:10:10;;;;;;;;;;;16.70;99.90;;;;;;7621082;19;19934;-82
2023/07/02 03:12:45;;;;;;;;;;;16.70;99.90;;;;;;7612500;19;19955;-81
2023/07/02 03:15:17;;;;;;;;;;;16.70;99.90;;;;;;7624689;19;20624;-84
2023/07/02 03:17:49;;;;;;;;;;;16.80;99.90;;;;;;7636046;19;20476;-82
2023/07/02 03:20:22;;;;;;;;;;;16.70;99.90;;;;;;7638780;19;19922;-83
2023/07/02 03:22:54;;;;;;;;;;;16.70;99.90;;;;;;7638257;19;19918;-82
2023/07/02 03:25:26;;;;;;;;;;;16.80;99.90;;;;;;7642908;19;19954;-81
2023/07/02 03:27:59;;;;;;;;;;;16.80;99.90;;;;;;7657819;19;19925;-83
2023/07/02 03:30:34;;;;;;;;;;;16.80;99.90;;;;;;7642287;19;19922;-82
2023/07/02 03:33:08;;;;;;;;;;;16.80;99.90;;;;;;7629957;19;19929;-83
2023/07/02 03:35:40;;;;;;;;;;;16.70;99.90;;;;;;7618002;19;19922;-82
2023/07/02 03:38:12;;;;;;;;;;;16.80;99.90;;;;;;7615552;19;20601;-83
2023/07/02 03:40:44;;;;;;;;;;;16.90;99.90;;;;;;7622307;19;19937;-81
2023/07/02 03:43:17;;;;;;;;;;;16.90;99.90;;;;;;7621740;19;19950;-81
2023/07/02 03:45:53;;;;;;;;;;;16.60;99.90;;;;;;7620101;19;20532;-83
2023/07/02 03:48:25;;;;;;;;;;;16.40;99.90;;;;;;7637776;19;19911;-82
2023/07/02 03:50:58;;;;;;;;;;;16.10;99.90;;;;;;7619855;19;19937;-80
2023/07/02 03:53:31;;;;;;;;;;;15.80;99.90;;;;;;7611615;19;20886;-84
2023/07/02 03:56:03;;;;;;;;;;;15.30;99.90;;;;;;7615807;19;19918;-85
2023/07/02 03:58:36;;;;;;;;;;;15.30;99.90;;;;;;7607318;19;19918;-81
2023/07/02 04:01:08;;;;;;;;;;;15.30;99.90;;;;;;7600926;19;19955;-85
2023/07/02 04:03:47;;;;;;;;;;;15.00;99.90;;;;;;7605279;19;19922;-81
2023/07/02 04:06:20;;;;;;;;;;;15.10;99.90;;;;;;7604263;19;19923;-83
2023/07/02 04:08:52;;;;;;;;;;;15.10;99.90;;;;;;7605293;19;19918;-83
2023/07/02 04:11:24;;;;;;;;;;;15.10;99.90;;;;;;7595640;19;21182;-84
2023/07/02 04:13:56;;;;;;;;;;;15.10;99.90;;;;;;7611754;19;19922;-82
2023/07/02 04:16:28;;;;;;;;;;;15.10;99.90;;;;;;7599518;19;19947;-83
2023/07/02 04:19:00;;;;;;;;;;;15.10;99.90;;;;;;7590512;19;20373;-83
2023/07/02 04:21:33;;;;;;;;;;;15.10;99.90;;;;;;7606076;19;19933;-84
2023/07/02 04:24:05;;;;;;;;;;;15.00;99.90;;;;;;7611518;19;19915;-82
2023/07/02 04:26:37;;;;;;;;;;;15.10;99.90;;;;;;7612959;19;19923;-81
2023/07/02 04:29:30;;;;;;;;;;;14.80;99.90;;;;;;7609149;19;19914;-82
2023/07/02 04:32:03;;;;;;;;;;;15.00;99.90;;;;;;7603036;19;19947;-81
2023/07/02 04:34:36;;;;;;;;;;;15.00;99.90;;;;;;7594280;19;19923;-82
2023/07/02 04:37:09;;;;;;;;;;;15.00;99.90;;;;;;7592694;19;19933;-80
2023/07/02 04:39:42;;;;;;;;;;;15.10;99.90;;;;;;7610468;19;19927;-83
2023/07/02 04:42:15;;;;;;;;;;;15.10;99.90;;;;;;7613958;19;19910;-82
2023/07/02 04:44:47;;;;;;;;;;;15.10;99.90;;;;;;7616414;19;19915;-82
2023/07/02 04:47:20;;;;;;;;;;;15.20;99.90;;;;;;7601031;19;20855;-81
2023/07/02 04:49:52;;;;;;;;;;;15.30;99.90;;;;;;7601948;19;19923;-82
2023/07/02 04:52:24;;;;;;;;;;;15.30;99.90;;;;;;7606917;19;19914;-84
2023/07/02 04:54:56;;;;;;;;;;;15.30;99.90;;;;;;7611463;19;19933;-83
2023/07/02 04:57:29;;;;;;;;;;;15.30;99.90;;;;;;7614971;19;19926;-82
2023/07/02 05:00:03;;;;;;;;;;;15.20;99.90;;;;;;7611980;19;19930;-83
2023/07/02 05:02:36;;;;;;;;;;;15.20;99.90;;;;;;7591929;19;19911;-82
2023/07/02 05:05:09;;;;;;;;;;;15.20;99.90;;;;;;7601488;19;19918;-84
2023/07/02 05:07:41;;;;;;;;;;;15.20;99.90;;;;;;7600023;19;19910;-82
2023/07/02 05:10:13;;;;;;;;;;;15.20;99.90;;;;;;7604535;19;19919;-82
2023/07/02 05:12:46;;;;;;;;;;;15.20;99.90;;;;;;7607392;19;19926;-83
2023/07/02 05:15:18;;;;;;;;;;;15.10;99.90;;;;;;7597718;19;20633;-83
2023/07/02 05:17:51;;;;;;;;;;;15.10;99.90;;;;;;7597236;19;19923;-82
2023/07/02 05:20:23;;;;;;;;;;;15.10;99.90;;;;;;7592207;19;19917;-83
2023/07/02 05:22:55;;;;;;;;;;;15.10;99.90;;;;;;7598968;19;19919;-83
2023/07/02 05:25:27;;;;;;;;;;;15.10;99.90;;;;;;7599992;19;19918;-82
2023/07/02 05:28:00;;;;;;;;;;;15.10;99.90;;;;;;7603684;19;19922;-81
2023/07/02 05:30:32;;;;;;;;;;;15.00;99.90;;;;;;7600662;19;19919;-81
2023/07/02 05:33:04;;;;;;;;;;;15.10;99.90;;;;;;7602757;19;19915;-83
2023/07/02 05:35:36;;;;;;;;;;;15.10;99.90;;;;;;7604057;19;19918;-81
2023/07/02 05:38:08;;;;;;;;;;;15.10;99.90;;;;;;7602144;19;19943;-81
2023/07/02 05:40:41;;;;;;;;;;;15.00;99.90;;;;;;7610007;19;20578;-84
2023/07/02 05:43:17;;;;;;;;;;;15.00;99.90;;;;;;7609330;19;19927;-84
2023/07/02 05:45:50;;;;;;;;;;;15.10;99.90;;;;;;7597712;19;19927;-83
2023/07/02 05:48:22;;;;;;;;;;;15.20;99.90;;;;;;7603132;19;20326;-82
2023/07/02 05:50:55;;;;;;;;;;;15.20;99.90;;;;;;7594137;19;19915;-82
2023/07/02 05:53:28;;;;;;;;;;;15.40;99.90;;;;;;7604848;19;19960;-81
2023/07/02 05:56:00;;;;;;;;;;;15.40;99.90;;;;;;7612055;19;19922;-84
2023/07/02 05:58:32;;;;;;;;;;;15.40;99.90;;;;;;7601230;19;19953;-84
2023/07/02 06:01:18;;;;;;;;;;;15.40;99.90;;;;;;7605078;19;20255;-81
2023/07/02 06:03:51;;;;;;;;;;;15.40;99.90;;;;;;7595492;19;19911;-85
2023/07/02 06:06:24;;;;;;;;;;;15.50;99.90;;;;;;7606481;19;20203;-84
2023/07/02 06:08:57;;;;;;;;;;;15.60;99.90;;;;;;7607234;19;19955;-81
2023/07/02 06:11:29;;;;;;;;;;;15.70;99.90;;;;;;7607079;19;19931;-84
2023/07/02 06:14:02;;;;;;;;;;;15.70;99.90;;;;;;7601485;19;19953;-83
2023/07/02 06:16:35;;;;;;;;;;;15.70;99.90;;;;;;7604578;19;20029;-82
2023/07/02 06:19:07;;;;;;;;;;;15.70;99.90;;;;;;7608662;19;19926;-83
2023/07/02 06:21:39;;;;;;;;;;;15.60;99.90;;;;;;7609796;19;19947;-84
2023/07/02 06:24:12;;;;;;;;;;;15.70;99.90;;;;;;7611986;19;19928;-84
2023/07/02 06:26:44;;;;;;;;;;;15.60;99.90;;;;;;7601746;19;19915;-81
2023/07/02 06:29:16;;;;;;;;;;;15.60;99.90;;;;;;7607368;19;20006;-82
2023/07/02 06:31:50;;;;;;;;;;;15.60;99.90;;;;;;7600169;19;20711;-81
2023/07/02 06:34:22;;;;;;;;;;;15.80;99.90;;;;;;7597885;19;19918;-82
2023/07/02 06:36:54;;;;;;;;;;;15.80;99.90;;;;;;7595951;19;19939;-81
2023/07/02 06:39:27;;;;;;;;;;;15.70;99.90;;;;;;7599136;19;19926;-83
2023/07/02 06:42:00;;;;;;;;;;;15.70;99.90;;;;;;7602102;19;19947;-84
2023/07/02 06:44:34;;;;;;;;;;;15.70;99.90;;;;;;7596376;19;19918;-83
2023/07/02 06:47:07;;;;;;;;;;;15.80;99.90;;;;;;7609427;19;19918;-84
2023/07/02 06:49:39;;;;;;;;;;;15.80;99.90;;;;;;7607340;19;20943;-83
2023/07/02 06:52:12;;;;;;;;;;;15.80;99.90;;;;;;7616152;19;19929;-84
2023/07/02 06:54:44;;;;;;;;;;;15.80;99.90;;;;;;7614630;19;20495;-82
2023/07/02 06:57:16;;;;;;;;;;;15.80;99.90;;;;;;7621058;19;21124;-83
2023/07/02 06:59:50;;;;;;;;;;;15.90;99.90;;;;;;7612358;19;19919;-83
2023/07/02 07:02:22;;;;;;;;;;;15.90;99.90;;;;;;7631178;19;19936;-84
2023/07/02 07:04:55;;;;;;;;;;;15.90;99.90;;;;;;7616921;19;20605;-84
2023/07/02 07:07:27;;;;;;;;;;;15.90;99.90;;;;;;7620782;19;19926;-82
2023/07/02 07:09:59;;;;;;;;;;;15.90;99.90;;;;;;7622826;19;19966;-84
2023/07/02 07:12:32;;;;;;;;;;;15.70;99.90;;;;;;7632936;19;19932;-83
2023/07/02 07:15:10;;;;;;;;;;;15.60;99.90;;;;;;7629991;19;19921;-80
2023/07/02 07:17:43;;;;;;;;;;;15.60;99.90;;;;;;7635094;19;19922;-81
2023/07/02 07:20:16;;;;;;;;;;;15.50;99.90;;;;;;7640113;19;19918;-83
2023/07/02 07:22:48;;;;;;;;;;;15.30;99.90;;;;;;7659167;19;19911;-81
2023/07/02 07:25:24;;;;;;;;;;;15.40;99.90;;;;;;7648159;19;20921;-82
2023/07/02 07:28:00;;;;;;;;;;;15.30;99.90;;;;;;7639780;19;19925;-82
2023/07/02 07:30:33;;;;;;;;;;;15.40;99.90;;;;;;7642687;19;19930;-84
2023/07/02 07:33:05;;;;;;;;;;;15.40;99.90;;;;;;7648661;19;19943;-82
2023/07/02 07:35:38;;;;;;;;;;;15.50;99.90;;;;;;7648215;19;19922;-81
2023/07/02 07:38:12;;;;;;;;;;;15.50;99.90;;;;;;7659217;19;19974;-83
2023/07/02 07:40:45;;;;;;;;;;;15.40;99.90;;;;;;7641239;19;19974;-83
2023/07/02 07:43:20;;;;;;;;;;;15.40;99.90;;;;;;7637296;19;19919;-82
2023/07/02 07:45:54;;;;;;;;;;;15.50;99.90;;;;;;7618778;19;19918;-79
2023/07/02 07:49:17;;;;;;;;;;;15.50;99.90;;;;;;7619365;19;19923;-79
2023/07/02 07:51:49;;;;;;;;;;;15.50;99.90;;;;;;7618851;19;19910;-81
2023/07/02 07:54:22;;;;;;;;;;;15.50;99.90;;;;;;7449499;19;3158072;-80
2023/07/02 07:56:55;;;;;;;;;;;15.50;99.90;;;;;;7616165;19;19911;-80
2023/07/02 07:59:28;;;;;;;;;;;15.40;99.90;;;;;;7618399;19;19918;-79
2023/07/02 08:02:00;;;;;;;;;;;15.50;99.90;;;;;;7594992;19;19926;-79
2023/07/02 08:04:33;;;;;;;;;;;15.50;99.90;;;;;;7604387;19;19926;-79
2023/07/02 08:07:06;;;;;;;;;;;15.50;99.90;;;;;;7613316;19;20818;-79
2023/07/02 08:09:38;;;;;;;;;;;15.50;99.90;;;;;;7611280;19;19918;-79
2023/07/02 08:12:10;;;;;;;;;;;15.50;99.90;;;;;;7584798;19;19989;-79
2023/07/02 08:14:43;;;;;;;;;;;15.60;99.90;;;;;;7599460;19;19918;-79
2023/07/02 08:17:15;;;;;;;;;;;15.60;99.90;;;;;;7587257;19;20002;-81
2023/07/02 08:19:48;;;;;;;;;;;15.60;99.90;;;;;;7593112;19;19999;-80
2023/07/02 08:22:21;;;;;;;;;;;15.60;99.90;;;;;;7594074;19;20789;-80
2023/07/02 08:24:54;;;;;;;;;;;15.50;99.90;;;;;;7604318;19;19982;-80
2023/07/02 08:27:27;;;;;;;;;;;15.70;99.90;;;;;;7595591;19;19915;-80
2023/07/02 08:30:01;;;;;;;;;;;15.80;99.90;;;;;;7591283;19;19923;-79
2023/07/02 08:32:33;;;;;;;;;;;15.90;99.90;;;;;;7605681;19;20017;-81
2023/07/02 08:35:07;;;;;;;;;;;15.90;99.90;;;;;;7588915;19;19915;-81
2023/07/02 08:37:40;;;;;;;;;;;16.00;99.90;;;;;;7598259;19;19954;-82
2023/07/02 08:40:18;;;;;;;;;;;16.10;99.90;;;;;;7610455;19;19923;-81
2023/07/02 08:42:53;;;;;;;;;;;15.90;99.90;;;;;;7563085;19;19926;-80
2023/07/02 08:45:26;;;;;;;;;;;15.90;99.90;;;;;;7574899;19;19921;-80
2023/07/02 08:47:59;;;;;;;;;;;16.00;99.90;;;;;;7576832;19;19919;-80
2023/07/02 08:50:32;;;;;;;;;;;15.90;99.90;;;;;;7576036;19;19922;-80
2023/07/02 08:53:04;;;;;;;;;;;15.90;99.90;;;;;;7581046;19;19935;-79
2023/07/02 08:55:36;;;;;;;;;;;15.80;99.90;;;;;;7596091;19;20929;-80
2023/07/02 08:58:09;;;;;;;;;;;15.70;99.90;;;;;;7589223;19;19933;-80
2023/07/02 09:01:01;;;;;;;;;;;15.80;99.90;;;;;;7571488;19;19930;-80
2023/07/02 09:03:37;;;;;;;;;;;15.90;99.90;;;;;;7574692;19;19968;-79
2023/07/02 09:06:17;;;;;;;;;;;16.00;99.90;;;;;;7588804;19;19922;-80
2023/07/02 09:08:49;;;;;;;;;;;15.90;99.90;;;;;;7587067;19;19918;-81
2023/07/02 09:11:22;;;;;;;;;;;15.90;99.90;;;;;;7565804;19;19978;-79
2023/07/02 09:13:58;;;;;;;;;;;15.90;99.90;;;;;;7582162;19;19919;-79
2023/07/02 09:16:32;;;;;;;;;;;15.80;99.90;;;;;;7599948;19;19927;-82
2023/07/02 09:19:08;;;;;;;;;;;15.80;99.90;;;;;;7598108;19;19914;-79
2023/07/02 09:21:45;;;;;;;;;;;15.90;99.90;;;;;;7580268;19;20011;-79
2023/07/02 09:24:19;;;;;;;;;;;15.90;99.90;;;;;;7596012;19;19930;-80
2023/07/02 09:26:56;;;;;;;;;;;15.90;99.90;;;;;;7580540;19;19915;-79
2023/07/02 09:29:29;;;;;;;;;;;15.90;99.90;;;;;;7568179;19;19943;-79
2023/07/02 09:32:03;;;;;;;;;;;16.00;99.90;;;;;;7600587;19;19926;-79
2023/07/02 09:34:42;;;;;;;;;;;16.00;99.90;;;;;;7565805;19;19934;-81
2023/07/02 09:37:15;;;;;;;;;;;15.90;99.90;;;;;;7565593;19;19956;-80
2023/07/02 09:39:49;;;;;;;;;;;16.10;99.90;;;;;;7587789;19;19918;-79
2023/07/02 09:42:21;;;;;;;;;;;16.20;99.90;;;;;;7582914;19;20000;-80
2023/07/02 09:44:54;;;;;;;;;;;16.30;99.90;;;;;;7586114;19;19925;-79
2023/07/02 09:47:27;;;;;;;;;;;16.40;99.90;;;;;;7601294;19;19925;-80
2023/07/02 09:50:08;;;;;;;;;;;16.40;99.90;;;;;;7608521;19;19950;-80
2023/07/02 09:52:40;;;;;;;;;;;16.50;99.90;;;;;;7599698;19;20444;-80
2023/07/02 09:55:13;;;;;;;;;;;16.80;99.90;;;;;;7595685;19;21340;-81
2023/07/02 09:57:46;;;;;;;;;;;16.90;99.90;;;;;;7593175;19;19919;-79
2023/07/02 10:00:18;;;;;;;;;;;17.10;99.90;;;;;;7601605;19;19999;-81
2023/07/02 10:02:50;;;;;;;;;;;17.00;99.90;;;;;;7586747;19;19983;-80
2023/07/02 10:05:25;;;;;;;;;;;17.10;99.90;;;;;;7589532;19;19922;-80
2023/07/02 10:07:58;;;;;;;;;;;17.10;99.90;;;;;;7585846;19;20336;-79
2023/07/02 10:10:31;;;;;;;;;;;17.20;99.90;;;;;;7592047;19;19915;-80
2023/07/02 10:13:03;;;;;;;;;;;17.40;99.90;;;;;;7593736;19;19922;-81
2023/07/02 10:15:39;;;;;;;;;;;17.60;99.90;;;;;;7597046;19;19993;-81
2023/07/02 10:18:12;;;;;;;;;;;18.00;99.90;;;;;;7594183;19;19944;-80
2023/07/02 10:20:44;;;;;;;;;;;18.20;99.90;;;;;;7593993;19;21090;-81
2023/07/02 10:23:17;;;;;;;;;;;18.40;99.90;;;;;;7599707;19;20183;-80
2023/07/02 10:25:49;;;;;;;;;;;18.70;99.90;;;;;;7587046;19;19951;-80
2023/07/02 10:28:22;;;;;;;;;;;18.70;99.90;;;;;;7597056;19;19915;-81
2023/07/02 10:30:55;;;;;;;;;;;18.60;99.90;;;;;;7599604;19;19918;-80
2023/07/02 10:33:27;;;;;;;;;;;18.70;99.90;;;;;;7608596;19;19951;-81
2023/07/02 10:35:59;;;;;;;;;;;19.30;99.90;;;;;;7596920;19;19949;-79
2023/07/02 10:38:32;;;;;;;;;;;19.40;99.90;;;;;;7609697;19;19955;-80
2023/07/02 10:41:05;;;;;;;;;;;19.10;99.90;;;;;;7608028;19;19925;-81
2023/07/02 10:43:38;;;;;;;;;;;19.30;99.90;;;;;;7602260;19;19942;-80
2023/07/02 10:46:18;;;;;;;;;;;19.60;99.90;;;;;;7615822;19;19922;-80
2023/07/02 10:48:54;;;;;;;;;;;20.00;99.90;;;;;;7595373;19;19919;-76
2023/07/02 10:51:28;;;;;;;;;;;;;;;;;;7591184;19;20517;-79
2023/07/02 10:54:02;;;;;;;;;;;19.90;99.90;;;;;;7591745;19;20273;-79
2023/07/02 10:56:34;;;;;;;;;;;21.00;99.90;;;;;;7606972;19;19919;-78
2023/07/02 10:59:07;;;;;;;;;;;21.00;99.90;;;;;;7605830;19;19926;-79
2023/07/02 11:01:39;;;;;;;;;;;20.60;99.90;;;;;;7593745;19;19919;-77
2023/07/02 11:04:11;;;;;;;;;;;20.30;99.90;;;;;;7579846;19;19957;-76
2023/07/02 11:06:44;;;;;;;;;;;20.60;99.90;;;;;;7577187;19;19929;-77
2023/07/02 11:09:24;;;;;;;;;;;21.00;99.90;;;;;;7593643;19;19923;-78
2023/07/02 11:11:57;;;;;;;;;;;21.60;99.90;;;;;;7594218;19;19911;-78
2023/07/02 11:14:33;;;;;;;;;;;21.80;99.90;;;;;;7602119;19;19938;-79
2023/07/02 11:17:06;;;;;;;;;;;22.00;99.90;;;;;;7606299;19;19927;-77
2023/07/02 11:19:38;;;;;;;;;;;22.30;99.90;;;;;;7606388;19;20307;-77
2023/07/02 11:22:10;;;;;;;;;;;22.30;99.90;;;;;;7612185;19;19919;-78
2023/07/02 11:24:42;;;;;;;;;;;22.40;99.90;;;;;;7623580;19;19923;-79
2023/07/02 11:27:24;;;;;;;;;;;22.80;99.90;;;;;;7622754;19;19926;-78
2023/07/02 11:30:00;;;;;;;;;;;22.30;99.90;;;;;;7609308;19;19918;-77
2023/07/02 11:32:34;;;;;;;;;;;22.40;99.90;;;;;;7623794;19;19923;-78
2023/07/02 11:35:07;;;;;;;;;;;22.50;99.90;;;;;;7621108;19;19922;-79
2023/07/02 11:37:39;;;;;;;;;;;22.40;99.90;;;;;;7624736;19;19925;-77
2023/07/02 11:40:13;;;;;;;;;;;22.50;99.90;;;;;;7635544;19;19955;-77
2023/07/02 11:42:45;;;;;;;;;;;22.70;99.90;;;;;;7627791;19;19934;-77
2023/07/02 11:45:17;;;;;;;;;;;22.80;99.90;;;;;;7627589;19;19932;-76
2023/07/02 11:47:49;;;;;;;;;;;23.20;99.90;;;;;;7633626;19;19944;-75
2023/07/02 11:50:21;;;;;;;;;;;23.40;99.90;;;;;;7624537;19;19931;-77
2023/07/02 11:53:00;;;;;;;;;;;23.10;99.90;;;;;;7637916;19;20798;-77
2023/07/02 11:55:36;;;;;;;;;;;23.30;99.90;;;;;;7645862;19;19923;-77
2023/07/02 11:58:08;;;;;;;;;;;23.30;99.90;;;;;;7638319;19;19914;-78
2023/07/02 12:00:40;;;;;;;;;;;23.70;99.80;;;;;;7622045;19;19933;-78
2023/07/02 12:03:12;;;;;;;;;;;23.60;99.20;;;;;;7619548;19;19930;-77
2023/07/02 12:05:45;;;;;;;;;;;23.40;98.90;;;;;;7594390;19;19919;-78
2023/07/02 12:08:17;;;;;;;;;;;23.30;99.90;;;;;;7612709;19;19914;-77
2023/07/02 12:10:49;;;;;;;;;;;23.30;99.50;;;;;;7609810;19;21658;-78
2023/07/02 12:13:22;;;;;;;;;;;23.50;99.90;;;;;;7610363;19;19919;-78
2023/07/02 12:15:54;;;;;;;;;;;23.10;99.90;;;;;;7598931;19;21208;-77
2023/07/02 12:18:27;;;;;;;;;;;23.00;99.90;;;;;;7595579;19;19934;-77
2023/07/02 12:20:59;;;;;;;;;;;23.30;99.90;;;;;;7606188;19;19949;-76
2023/07/02 12:23:31;;;;;;;;;;;23.80;99.90;;;;;;7604664;19;19951;-78
2023/07/02 12:26:03;;;;;;;;;;;24.00;98.80;;;;;;7601706;19;19915;-77
2023/07/02 12:28:35;;;;;;;;;;;24.00;99.10;;;;;;7601923;19;19960;-78
2023/07/02 12:31:08;;;;;;;;;;;23.90;98.10;;;;;;7587124;19;20266;-76
2023/07/02 12:33:40;;;;;;;;;;;23.80;97.90;;;;;;7605742;19;21078;-78
2023/07/02 12:36:13;;;;;;;;;;;23.90;97.70;;;;;;7600869;19;20665;-78
2023/07/02 12:38:46;;;;;;;;;;;23.90;97.60;;;;;;7603699;19;19986;-77
2023/07/02 12:41:18;;;;;;;;;;;24.30;95.50;;;;;;7584439;19;21350;-76
2023/07/02 12:43:50;;;;;;;;;;;24.60;96.00;;;;;;7591570;19;20800;-78
2023/07/02 12:46:22;;;;;;;;;;;24.90;96.10;;;;;;7585401;19;19926;-75
2023/07/02 12:48:55;;;;;;;;;;;24.80;93.50;;;;;;7596181;19;19926;-77
2023/07/02 12:51:27;;;;;;;;;;;24.70;94.50;;;;;;7592246;19;19922;-77
2023/07/02 12:53:59;;;;;;;;;;;24.80;92.70;;;;;;7587000;19;19907;-75
2023/07/02 12:56:31;;;;;;;;;;;24.80;91.90;;;;;;7585146;19;19926;-76
2023/07/02 12:59:03;;;;;;;;;;;24.70;86.60;;;;;;7582923;19;19915;-76
2023/07/02 13:01:36;;;;;;;;;;;24.30;90.80;;;;;;7574955;19;19915;-78
2023/07/02 13:04:11;;;;;;;;;;;23.90;91.90;;;;;;7597756;19;19965;-77
2023/07/02 13:06:45;;;;;;;;;;;23.70;93.50;;;;;;7589225;19;19915;-78
2023/07/02 13:09:17;;;;;;;;;;;23.50;92.50;;;;;;7566339;19;19949;-78
2023/07/02 13:11:49;;;;;;;;;;;23.20;92.20;;;;;;7591396;19;20148;-77
2023/07/02 13:14:21;;;;;;;;;;;23.70;93.20;;;;;;7583864;19;19919;-75
2023/07/02 13:16:55;;;;;;;;;;;23.70;90.10;;;;;;7597523;19;19922;-76
2023/07/02 13:19:27;;;;;;;;;;;23.40;90.60;;;;;;7556931;19;19922;-75
2023/07/02 13:22:00;;;;;;;;;;;23.30;93.00;;;;;;7567291;19;19931;-76
2023/07/02 13:24:36;;;;;;;;;;;23.20;92.00;;;;;;7591015;19;20022;-76
2023/07/02 13:27:11;;;;;;;;;;;23.10;92.70;;;;;;7561014;19;20003;-78
2023/07/02 13:29:43;;;;;;;;;;;23.40;92.00;;;;;;7565821;19;19925;-76
2023/07/02 13:32:15;;;;;;;;;;;23.70;92.30;;;;;;7591345;19;19954;-75
2023/07/02 13:34:47;;;;;;;;;;;23.70;92.00;;;;;;7591344;19;19911;-76
2023/07/02 13:37:20;;;;;;;;;;;24.10;91.10;;;;;;7592399;19;19929;-76
2023/07/02 13:39:52;;;;;;;;;;;24.30;90.40;;;;;;7610742;19;19926;-77
2023/07/02 13:42:24;;;;;;;;;;;24.40;88.80;;;;;;7596826;19;19951;-77
2023/07/02 13:44:56;;;;;;;;;;;24.00;89.70;;;;;;7611546;19;19923;-77
2023/07/02 13:47:28;;;;;;;;;;;24.10;90.70;;;;;;7610160;19;19933;-77
2023/07/02 13:50:01;;;;;;;;;;;24.10;88.70;;;;;;7593339;19;21126;-77
2023/07/02 13:52:34;;;;;;;;;;;24.00;88.00;;;;;;7596366;19;21314;-76
2023/07/02 13:55:06;;;;;;;;;;;24.30;89.10;;;;;;7604164;19;19927;-77
2023/07/02 13:57:38;;;;;;;;;;;24.70;88.50;;;;;;7595605;19;19914;-77
2023/07/02 14:00:10;;;;;;;;;;;25.40;86.10;;;;;;7630997;19;19939;-77
2023/07/02 14:02:42;;;;;;;;;;;25.70;84.90;;;;;;7599059;19;20011;-76
2023/07/02 14:05:15;;;;;;;;;;;25.80;84.80;;;;;;7592161;19;19923;-77
2023/07/02 14:07:47;;;;;;;;;;;26.00;84.30;;;;;;7593119;19;19919;-76
2023/07/02 14:10:20;;;;;;;;;;;26.30;81.30;;;;;;7593839;19;19918;-75
2023/07/02 14:12:52;;;;;;;;;;;26.30;81.10;;;;;;7593330;19;19923;-75
2023/07/02 14:15:25;;;;;;;;;;;26.30;80.80;;;;;;7575527;19;20846;-77
2023/07/02 14:17:57;;;;;;;;;;;26.50;81.20;;;;;;7589523;19;20555;-76
2023/07/02 14:20:30;;;;;;;;;;;26.60;78.70;;;;;;7594506;19;19918;-77
2023/07/02 14:23:02;;;;;;;;;;;26.70;74.50;;;;;;7596784;19;19918;-77
2023/07/02 14:25:34;;;;;;;;;;;26.80;75.60;;;;;;7600738;19;19927;-77
2023/07/02 14:28:13;;;;;;;;;;;26.80;75.60;;;;;;7604076;19;19922;-79
2023/07/02 14:30:46;;;;;;;;;;;26.80;74.80;;;;;;7599763;19;19943;-76
2023/07/02 14:33:18;;;;;;;;;;;26.70;74.80;;;;;;7603856;19;19914;-78
2023/07/02 14:35:50;;;;;;;;;;;26.30;73.60;;;;;;7591489;19;19914;-78
2023/07/02 14:38:23;;;;;;;;;;;25.90;73.50;;;;;;7596914;19;19923;-76
2023/07/02 14:40:58;;;;;;;;;;;25.70;75.80;;;;;;7596864;19;19929;-78
2023/07/02 14:43:40;;;;;;;;;;;25.60;75.60;;;;;;7603312;19;19915;-78
2023/07/02 14:46:16;;;;;;;;;;;25.40;74.90;;;;;;7604174;19;19922;-76
2023/07/02 14:48:48;;;;;;;;;;;25.30;75.70;;;;;;7593247;19;19984;-76
2023/07/02 14:51:20;;;;;;;;;;;25.30;74.70;;;;;;7608764;19;20377;-76